createdAt,value
2018-12-15T00:00:10.982Z,13.70
2018-12-15T00:02:42.576Z,14.87
2018-12-15T00:05:14.338Z,17.73
2018-12-15T00:07:45.803Z,13.77
2018-12-15T00:10:17.416Z,15.70
2018-12-15T00:12:48.921Z,16.40
2018-12-15T00:15:20.560Z,15.30
2018-12-15T00:17:52.023Z,18.40
2018-12-15T00:20:23.566Z,16.47
2018-12-15T00:22:55.023Z,20.83
2018-12-15T00:25:26.571Z,15.67
2018-12-15T00:27:58.036Z,16.00
2018-12-15T00:30:29.578Z,18.97
2018-12-15T00:33:01.047Z,19.03
2018-12-15T00:35:32.652Z,19.47
2018-12-15T00:38:04.152Z,18.83
2018-12-15T00:40:35.701Z,17.13
2018-12-15T00:43:07.147Z,17.70
2018-12-15T00:45:38.703Z,14.13
2018-12-15T00:48:10.155Z,12.90
2018-12-15T00:50:41.700Z,16.33
2018-12-15T00:53:13.169Z,18.20
2018-12-15T00:55:44.695Z,18.03
2018-12-15T00:58:16.172Z,18.90
2018-12-15T01:00:47.818Z,16.87
2018-12-15T01:03:19.245Z,19.27
2018-12-15T01:05:51.040Z,15.57
2018-12-15T01:08:22.451Z,20.20
2018-12-15T01:10:54.027Z,21.20
2018-12-15T01:13:25.639Z,19.60
2018-12-15T01:15:57.153Z,20.10
2018-12-15T01:18:28.767Z,21.13
2018-12-15T01:21:00.256Z,17.40
2018-12-15T01:23:31.865Z,16.20
2018-12-15T01:26:03.370Z,20.23
2018-12-15T01:28:34.907Z,19.63
2018-12-15T01:31:06.381Z,22.40
2018-12-15T01:33:38.010Z,18.23
2018-12-15T01:36:09.433Z,15.23
2018-12-15T01:38:41.013Z,16.30
2018-12-15T01:41:12.440Z,18.20
2018-12-15T01:43:44.016Z,17.40
2018-12-15T01:46:15.443Z,16.43
2018-12-15T01:48:47.047Z,23.93
2018-12-15T01:51:18.854Z,17.87
2018-12-15T01:53:50.363Z,14.83
2018-12-15T01:56:21.947Z,19.57
2018-12-15T01:58:53.445Z,19.63
2018-12-15T02:01:25.063Z,21.00
2018-12-15T02:03:56.586Z,19.17
2018-12-15T02:06:28.175Z,20.30
2018-12-15T02:08:59.694Z,17.67
2018-12-15T02:11:31.195Z,21.73
2018-12-15T02:14:02.694Z,21.43
2018-12-15T02:16:34.461Z,15.83
2018-12-15T02:19:05.904Z,18.13
2018-12-15T02:21:37.632Z,18.43
2018-12-15T02:24:09.101Z,20.37
2018-12-15T02:26:40.745Z,15.67
2018-12-15T02:29:14.228Z,16.57
2018-12-15T02:31:45.796Z,19.07
2018-12-15T02:34:17.360Z,19.87
2018-12-15T02:36:48.820Z,17.50
2018-12-15T02:39:20.427Z,20.37
2018-12-15T02:41:51.895Z,21.77
2018-12-15T02:44:23.478Z,20.13
2018-12-15T02:46:54.936Z,17.60
2018-12-15T02:49:26.572Z,14.77
2018-12-15T02:51:57.997Z,26.40
2018-12-15T02:54:29.579Z,17.30
2018-12-15T02:57:00.995Z,17.83
2018-12-15T02:59:32.580Z,15.53
2018-12-15T03:02:04.444Z,19.20
2018-12-15T03:04:35.926Z,23.13
2018-12-15T03:07:07.512Z,16.33
2018-12-15T03:09:39.019Z,20.07
2018-12-15T03:12:10.565Z,16.67
2018-12-15T03:14:42.023Z,21.23
2018-12-15T03:17:13.666Z,18.27
2018-12-15T03:19:45.142Z,15.23
2018-12-15T03:22:16.691Z,15.67
2018-12-15T03:24:48.297Z,17.70
2018-12-15T03:27:19.983Z,17.40
2018-12-15T03:29:51.559Z,16.97
2018-12-15T03:32:23.108Z,18.77
2018-12-15T03:34:54.553Z,12.67
2018-12-15T03:37:26.096Z,17.37
2018-12-15T03:39:57.591Z,13.20
2018-12-15T03:42:29.111Z,17.40
2018-12-15T03:45:00.567Z,17.63
2018-12-15T03:47:32.117Z,15.63
2018-12-15T03:50:03.968Z,18.00
2018-12-15T03:52:35.428Z,16.00
2018-12-15T03:55:07.187Z,15.53
2018-12-15T03:57:38.650Z,18.47
2018-12-15T04:00:10.501Z,14.53
2018-12-15T04:02:42.007Z,15.43
2018-12-15T04:05:13.541Z,16.63
2018-12-15T04:07:45.006Z,15.57
2018-12-15T04:10:16.644Z,17.47
2018-12-15T04:12:48.086Z,16.47
2018-12-15T04:15:19.657Z,17.60
2018-12-15T04:17:51.133Z,13.03
2018-12-15T04:20:22.720Z,14.53
2018-12-15T04:22:54.133Z,16.57
2018-12-15T04:25:25.725Z,16.00
2018-12-15T04:27:57.277Z,14.83
2018-12-15T04:30:28.838Z,13.67
2018-12-15T04:33:00.302Z,15.63
2018-12-15T04:35:32.247Z,15.00
2018-12-15T04:38:03.866Z,16.07
2018-12-15T04:40:35.730Z,11.73
2018-12-15T04:43:07.325Z,15.20
2018-12-15T04:45:38.834Z,18.13
2018-12-15T04:48:11.329Z,16.43
2018-12-15T04:50:43.016Z,14.87
2018-12-15T04:53:14.561Z,18.43
2018-12-15T04:55:45.919Z,15.53
2018-12-15T04:58:17.537Z,12.57
2018-12-15T05:00:49.036Z,12.80
2018-12-15T05:03:20.637Z,16.53
2018-12-15T05:05:52.143Z,17.40
2018-12-15T05:08:23.631Z,11.63
2018-12-15T05:10:55.233Z,14.70
2018-12-15T05:13:26.783Z,13.77
2018-12-15T05:15:58.332Z,16.93
2018-12-15T05:18:29.796Z,15.87
2018-12-15T05:21:01.348Z,17.20
2018-12-15T05:23:32.798Z,14.37
2018-12-15T05:26:04.371Z,15.33
2018-12-15T05:28:35.809Z,15.47
2018-12-15T05:31:07.416Z,16.13
2018-12-15T05:33:38.929Z,13.23
2018-12-15T05:36:10.528Z,16.90
2018-12-15T05:38:42.031Z,16.93
2018-12-15T05:41:13.577Z,15.30
2018-12-15T05:43:45.141Z,16.83
2018-12-15T05:46:16.679Z,16.63
2018-12-15T05:48:48.709Z,15.77
2018-12-15T05:51:20.219Z,17.90
2018-12-15T05:53:51.821Z,13.70
2018-12-15T05:56:23.316Z,15.17
2018-12-15T05:58:54.853Z,15.63
2018-12-15T06:01:26.337Z,14.93
2018-12-15T06:03:57.929Z,14.60
2018-12-15T06:06:29.441Z,16.23
2018-12-15T06:09:01.031Z,15.17
2018-12-15T06:11:32.533Z,15.80
2018-12-15T06:14:04.228Z,15.83
2018-12-15T06:16:35.806Z,11.23
2018-12-15T06:19:07.404Z,13.40
2018-12-15T06:21:38.809Z,14.67
2018-12-15T06:24:10.312Z,13.43
2018-12-15T06:26:41.757Z,14.97
2018-12-15T06:29:13.258Z,12.73
2018-12-15T06:31:44.917Z,12.00
2018-12-15T06:34:16.412Z,15.17
2018-12-15T06:36:48.016Z,14.47
2018-12-15T06:39:19.519Z,11.77
2018-12-15T06:41:51.136Z,10.93
2018-12-15T06:44:22.647Z,15.47
2018-12-15T06:46:54.170Z,11.43
2018-12-15T06:49:26.398Z,12.20
2018-12-15T06:51:57.901Z,13.57
2018-12-15T06:54:29.450Z,12.10
2018-12-15T06:57:00.909Z,12.23
2018-12-15T06:59:32.455Z,10.50
2018-12-15T07:02:03.955Z,11.13
2018-12-15T07:04:35.460Z,15.40
2018-12-15T07:07:06.919Z,8.90
2018-12-15T07:09:38.499Z,12.87
2018-12-15T07:12:10.290Z,9.07
2018-12-15T07:14:41.896Z,11.97
2018-12-15T07:17:13.508Z,15.13
2018-12-15T07:19:45.008Z,13.03
2018-12-15T07:22:16.609Z,14.87
2018-12-15T07:24:51.501Z,13.67
2018-12-15T07:27:54.820Z,11.73
2018-12-15T07:30:44.886Z,9.30
2018-12-15T07:33:17.156Z,13.33
2018-12-15T07:35:48.709Z,13.63
2018-12-15T07:38:20.153Z,12.30
2018-12-15T07:40:51.764Z,11.40
2018-12-15T07:43:23.256Z,11.80
2018-12-15T07:45:54.801Z,12.67
2018-12-15T07:48:26.258Z,9.57
2018-12-15T07:50:59.106Z,13.97
2018-12-15T07:53:30.599Z,13.40
2018-12-15T07:56:02.206Z,11.13
2018-12-15T07:58:33.702Z,9.30
2018-12-15T08:01:05.316Z,12.40
2018-12-15T08:03:36.906Z,13.40
2018-12-15T08:06:08.457Z,10.23
2018-12-15T08:08:39.914Z,12.07
2018-12-15T08:11:16.491Z,9.53
2018-12-15T08:13:49.284Z,11.93
2018-12-15T08:16:20.817Z,10.93
2018-12-15T08:18:57.916Z,12.50
2018-12-15T08:21:25.778Z,13.53
2018-12-15T08:23:59.707Z,13.03
2018-12-15T08:26:31.304Z,12.43
2018-12-15T08:29:02.824Z,11.73
2018-12-15T08:31:34.409Z,12.73
2018-12-15T08:34:05.846Z,12.43
2018-12-15T08:36:37.439Z,11.53
2018-12-15T08:39:09.818Z,11.73
2018-12-15T08:41:41.286Z,12.30
2018-12-15T08:44:12.932Z,11.67
2018-12-15T08:46:44.407Z,8.37
2018-12-15T08:49:15.993Z,11.13
2018-12-15T08:51:47.500Z,10.30
2018-12-15T08:54:19.107Z,8.63
2018-12-15T08:56:50.606Z,10.73
2018-12-15T08:59:22.213Z,10.57
2018-12-15T09:01:53.719Z,10.17
2018-12-15T09:04:25.315Z,11.50
2018-12-15T09:06:56.814Z,9.83
2018-12-15T09:09:28.463Z,9.77
2018-12-15T09:11:59.896Z,9.57
2018-12-15T09:14:31.484Z,6.73
2018-12-15T09:17:02.939Z,6.97
2018-12-15T09:19:34.472Z,6.57
2018-12-15T09:22:11.362Z,8.23
2018-12-15T09:24:39.538Z,8.67
2018-12-15T09:27:11.199Z,10.23
2018-12-15T09:29:42.822Z,8.40
2018-12-15T09:32:14.386Z,8.77
2018-12-15T09:34:46.130Z,6.47
2018-12-15T09:37:17.627Z,9.20
2018-12-15T09:39:49.229Z,9.23
2018-12-15T09:42:20.717Z,8.87
2018-12-15T09:44:52.276Z,9.30
2018-12-15T09:47:23.727Z,8.33
2018-12-15T09:49:55.488Z,7.60
2018-12-15T09:52:26.940Z,9.70
2018-12-15T09:54:58.475Z,7.30
2018-12-15T09:57:29.790Z,6.60
2018-12-15T10:00:01.438Z,8.80
2018-12-15T10:02:32.958Z,6.60
2018-12-15T10:05:04.799Z,8.17
2018-12-15T10:07:36.264Z,9.93
2018-12-15T10:10:07.834Z,9.33
2018-12-15T10:12:39.271Z,8.13
2018-12-15T10:15:10.833Z,8.60
2018-12-15T10:17:42.279Z,11.43
2018-12-15T10:20:13.691Z,9.53
2018-12-15T10:22:45.267Z,8.60
2018-12-15T10:25:16.692Z,12.07
2018-12-15T10:27:48.295Z,9.23
2018-12-15T10:30:24.509Z,10.50
2018-12-15T10:32:56.632Z,9.07
2018-12-15T10:35:28.188Z,8.67
2018-12-15T10:37:59.590Z,10.80
2018-12-15T10:40:31.155Z,8.97
2018-12-15T10:43:02.734Z,8.57
2018-12-15T10:45:34.182Z,8.30
2018-12-15T10:48:05.788Z,12.07
2018-12-15T10:50:37.298Z,11.50
2018-12-15T10:53:08.823Z,12.00
2018-12-15T10:55:40.299Z,9.07
2018-12-15T10:58:11.891Z,8.53
2018-12-15T11:00:48.372Z,12.37
2018-12-15T11:03:19.961Z,10.23
2018-12-15T11:05:51.393Z,10.20
2018-12-15T11:08:22.963Z,13.07
2018-12-15T11:10:54.439Z,11.87
2018-12-15T11:13:25.998Z,14.27
2018-12-15T11:15:57.438Z,10.70
2018-12-15T11:18:28.973Z,11.73
2018-12-15T11:21:00.532Z,13.23
2018-12-15T11:23:32.108Z,13.17
2018-12-15T11:26:03.710Z,10.90
2018-12-15T11:28:35.212Z,15.53
2018-12-15T11:31:06.916Z,15.13
2018-12-15T11:33:38.415Z,12.43
2018-12-15T11:36:10.014Z,15.37
2018-12-15T11:38:41.480Z,11.60
2018-12-15T11:41:13.061Z,7.53
2018-12-15T11:43:44.523Z,9.33
2018-12-15T11:46:16.134Z,12.53
2018-12-15T11:48:47.635Z,12.07
2018-12-15T11:51:19.243Z,14.87
2018-12-15T11:53:50.756Z,15.63
2018-12-15T11:56:22.353Z,16.10
2018-12-15T11:58:55.882Z,16.60
2018-12-15T12:01:27.391Z,18.57
2018-12-15T12:03:58.995Z,14.13
2018-12-15T12:06:30.551Z,13.00
2018-12-15T12:09:01.971Z,14.93
2018-12-15T12:11:33.552Z,14.50
2018-12-15T12:14:05.163Z,17.63
2018-12-15T12:16:36.662Z,19.10
2018-12-15T12:19:08.274Z,13.27
2018-12-15T12:21:39.875Z,14.57
2018-12-15T12:24:11.490Z,12.60
2018-12-15T12:26:42.991Z,15.63
2018-12-15T12:29:14.596Z,13.90
2018-12-15T12:31:46.101Z,16.53
2018-12-15T12:34:17.702Z,14.47
2018-12-15T12:36:49.207Z,14.63
2018-12-15T12:39:20.956Z,16.43
2018-12-15T12:41:52.433Z,17.20
2018-12-15T12:44:24.032Z,11.60
2018-12-15T12:46:55.528Z,14.53
2018-12-15T12:49:27.373Z,18.77
2018-12-15T12:51:58.812Z,14.67
2018-12-15T12:54:30.490Z,13.27
2018-12-15T12:57:01.902Z,15.63
2018-12-15T12:59:33.489Z,16.53
2018-12-15T13:02:04.915Z,15.03
2018-12-15T13:04:36.494Z,14.37
2018-12-15T13:07:09.163Z,18.03
2018-12-15T13:09:41.252Z,14.07
2018-12-15T13:12:13.060Z,14.17
2018-12-15T13:14:44.869Z,19.13
2018-12-15T13:17:19.263Z,16.23
2018-12-15T13:19:50.935Z,15.37
2018-12-15T13:22:22.418Z,17.40
2018-12-15T13:24:53.824Z,15.97
2018-12-15T13:27:25.295Z,14.10
2018-12-15T13:29:56.852Z,17.60
2018-12-15T13:32:28.386Z,17.10
2018-12-15T13:34:59.973Z,13.63
2018-12-15T13:37:31.376Z,18.83
2018-12-15T13:40:02.960Z,15.43
2018-12-15T13:42:34.430Z,12.73
2018-12-15T13:45:06.532Z,14.53
2018-12-15T13:47:38.204Z,16.30
2018-12-15T13:50:10.570Z,15.93
2018-12-15T13:52:42.260Z,15.27
2018-12-15T13:55:13.832Z,17.57
2018-12-15T13:57:45.230Z,19.00
2018-12-15T14:00:16.852Z,17.00
2018-12-15T14:02:48.336Z,18.83
2018-12-15T14:05:19.933Z,18.07
2018-12-15T14:07:51.554Z,18.70
2018-12-15T14:10:23.060Z,15.10
2018-12-15T14:12:54.665Z,14.87
2018-12-15T14:15:26.115Z,15.90
2018-12-15T14:17:57.709Z,16.07
2018-12-15T14:20:29.163Z,16.50
2018-12-15T14:23:00.724Z,12.73
2018-12-15T14:25:32.175Z,17.23
2018-12-15T14:28:03.738Z,15.10
2018-12-15T14:30:35.141Z,20.00
2018-12-15T14:33:06.712Z,14.47
2018-12-15T14:35:38.136Z,17.10
2018-12-15T14:38:09.736Z,18.33
2018-12-15T14:40:41.234Z,21.83
2018-12-15T14:43:12.821Z,18.17
2018-12-15T14:45:44.448Z,22.40
2018-12-15T14:48:15.960Z,14.07
2018-12-15T14:50:47.560Z,20.03
2018-12-15T14:53:19.058Z,15.43
2018-12-15T14:55:50.662Z,18.33
2018-12-15T14:58:22.173Z,16.40
2018-12-15T15:00:54.021Z,17.53
2018-12-15T15:03:25.695Z,16.33
2018-12-15T15:05:57.335Z,17.73
2018-12-15T15:08:28.939Z,18.33
2018-12-15T15:11:00.457Z,21.33
2018-12-15T15:13:34.639Z,16.63
2018-12-15T15:16:05.760Z,14.30
2018-12-15T15:18:37.347Z,16.13
2018-12-15T15:21:08.775Z,15.70
2018-12-15T15:23:40.376Z,16.33
2018-12-15T15:26:11.779Z,20.83
2018-12-15T15:28:43.359Z,19.57
2018-12-15T15:31:14.976Z,15.73
2018-12-15T15:33:46.504Z,16.70
2018-12-15T15:36:18.122Z,17.47
2018-12-15T15:38:49.683Z,23.03
2018-12-15T15:41:21.227Z,20.23
2018-12-15T15:43:52.780Z,19.73
2018-12-15T15:46:24.217Z,17.80
2018-12-15T15:48:55.792Z,17.33
2018-12-15T15:51:27.319Z,19.07
2018-12-15T15:53:58.804Z,17.37
2018-12-15T15:56:30.229Z,20.40
2018-12-15T15:59:01.805Z,20.50
2018-12-15T16:01:33.351Z,16.23
2018-12-15T16:04:04.944Z,16.00
2018-12-15T16:06:36.479Z,19.07
2018-12-15T16:09:11.001Z,21.87
2018-12-15T16:11:42.409Z,22.13
2018-12-15T16:14:14.000Z,19.30
2018-12-15T16:16:45.409Z,20.60
2018-12-15T16:19:17.016Z,19.83
2018-12-15T16:21:48.825Z,18.37
2018-12-15T16:24:20.440Z,24.27
2018-12-15T16:26:52.041Z,18.13
2018-12-15T16:29:23.534Z,18.10
2018-12-15T16:31:55.080Z,18.87
2018-12-15T16:34:26.543Z,18.60
2018-12-15T16:36:58.148Z,23.07
2018-12-15T16:39:29.639Z,16.27
2018-12-15T16:42:01.194Z,23.10
2018-12-15T16:44:32.660Z,16.03
2018-12-15T16:47:04.261Z,18.43
2018-12-15T16:49:35.756Z,18.33
2018-12-15T16:52:07.368Z,17.90
2018-12-15T16:54:39.132Z,16.57
2018-12-15T16:57:10.721Z,17.63
2018-12-15T16:59:42.132Z,19.73
2018-12-15T17:02:13.737Z,16.10
2018-12-15T17:04:45.185Z,16.27
2018-12-15T17:07:16.721Z,18.40
2018-12-15T17:09:48.148Z,17.10
2018-12-15T17:12:19.752Z,18.00
2018-12-15T17:14:51.152Z,17.03
2018-12-15T17:17:22.736Z,17.50
2018-12-15T17:19:54.160Z,18.93
2018-12-15T17:22:25.764Z,14.03
2018-12-15T17:24:57.221Z,17.80
2018-12-15T17:27:31.648Z,13.93
2018-12-15T17:30:03.281Z,14.67
2018-12-15T17:32:35.001Z,16.70
2018-12-15T17:35:07.204Z,14.60
2018-12-15T17:37:38.657Z,20.57
2018-12-15T17:40:12.127Z,14.27
2018-12-15T17:42:43.576Z,11.47
2018-12-15T17:45:15.167Z,13.33
2018-12-15T17:47:46.778Z,13.67
2018-12-15T17:50:18.370Z,12.03
2018-12-15T17:52:49.788Z,13.40
2018-12-15T17:55:21.364Z,13.27
2018-12-15T17:57:52.992Z,16.67
2018-12-15T18:00:24.408Z,14.67
2018-12-15T18:02:55.879Z,12.93
2018-12-15T18:05:27.491Z,13.23
2018-12-15T18:07:58.896Z,14.33
2018-12-15T18:10:30.493Z,12.47
2018-12-15T18:13:02.039Z,13.67
2018-12-15T18:15:33.592Z,13.87
2018-12-15T18:18:05.044Z,12.17
2018-12-15T18:20:36.613Z,14.07
2018-12-15T18:23:08.156Z,15.73
2018-12-15T18:25:39.702Z,14.80
2018-12-15T18:28:11.259Z,13.53
2018-12-15T18:30:43.231Z,13.50
2018-12-15T18:33:14.878Z,16.73
2018-12-15T18:35:46.302Z,15.23
2018-12-15T18:38:17.885Z,14.57
2018-12-15T18:40:49.309Z,16.87
2018-12-15T18:43:20.893Z,14.87
2018-12-15T18:45:52.437Z,13.97
2018-12-15T18:48:24.000Z,16.43
2018-12-15T18:50:55.470Z,15.40
2018-12-15T18:53:27.010Z,13.57
2018-12-15T18:55:58.480Z,14.17
2018-12-15T18:58:30.077Z,14.27
2018-12-15T19:01:01.584Z,11.90
2018-12-15T19:03:33.950Z,14.30
2018-12-15T19:06:05.558Z,14.13
2018-12-15T19:08:37.072Z,13.07
2018-12-15T19:11:08.716Z,13.33
2018-12-15T19:13:40.159Z,13.77
2018-12-15T19:16:11.768Z,13.00
2018-12-15T19:18:43.283Z,14.83
2018-12-15T19:21:14.694Z,13.33
2018-12-15T19:23:46.280Z,17.07
2018-12-15T19:26:17.879Z,16.83
2018-12-15T19:28:49.395Z,15.13
2018-12-15T19:31:20.992Z,17.13
2018-12-15T19:33:52.525Z,15.57
2018-12-15T19:36:24.101Z,15.37
2018-12-15T19:38:55.560Z,15.10
2018-12-15T19:41:27.208Z,16.20
2018-12-15T19:43:58.721Z,16.93
2018-12-15T19:46:30.320Z,14.67
2018-12-15T19:49:01.833Z,15.70
2018-12-15T19:51:33.233Z,15.20
2018-12-15T19:54:04.735Z,15.27
2018-12-15T19:56:36.273Z,18.03
2018-12-15T19:59:09.740Z,18.83
2018-12-15T20:01:41.231Z,18.33
2018-12-15T20:04:12.631Z,17.97
2018-12-15T20:06:44.228Z,17.40
2018-12-15T20:09:15.840Z,22.07
2018-12-15T20:11:47.327Z,20.17
2018-12-15T20:14:18.948Z,17.80
2018-12-15T20:16:50.459Z,17.03
2018-12-15T20:19:22.060Z,18.90
2018-12-15T20:21:53.560Z,19.57
2018-12-15T20:24:25.205Z,18.67
2018-12-15T20:26:56.664Z,19.73
2018-12-15T20:29:28.168Z,18.67
2018-12-15T20:31:59.628Z,20.83
2018-12-15T20:34:31.225Z,17.60
2018-12-15T20:37:02.759Z,21.17
2018-12-15T20:39:34.317Z,19.13
2018-12-15T20:42:05.737Z,19.97
2018-12-15T20:44:41.649Z,23.00
2018-12-15T20:47:11.082Z,20.43
2018-12-15T20:49:42.566Z,20.27
2018-12-15T20:52:14.149Z,20.43
2018-12-15T20:54:45.752Z,22.83
2018-12-15T20:57:17.256Z,20.07
2018-12-15T20:59:48.857Z,19.03
2018-12-15T21:02:20.358Z,20.73
2018-12-15T21:04:51.969Z,21.07
2018-12-15T21:07:23.470Z,19.33
2018-12-15T21:09:55.112Z,20.80
2018-12-15T21:12:26.592Z,17.50
2018-12-15T21:15:02.209Z,20.57
2018-12-15T21:17:33.776Z,20.17
2018-12-15T21:20:05.723Z,16.63
2018-12-15T21:22:37.204Z,16.37
2018-12-15T21:25:08.731Z,14.87
2018-12-15T21:27:40.211Z,20.07
2018-12-15T21:30:12.538Z,16.63
2018-12-15T21:32:44.123Z,15.73
2018-12-15T21:35:15.592Z,14.20
2018-12-15T21:37:47.188Z,19.43
2018-12-15T21:40:18.705Z,15.83
2018-12-15T21:42:50.306Z,18.70
2018-12-15T21:45:21.809Z,21.50
2018-12-15T21:47:57.597Z,14.23
2018-12-15T21:50:26.916Z,21.93
2018-12-15T21:52:58.487Z,16.17
2018-12-15T21:55:29.907Z,17.53
2018-12-15T21:58:01.494Z,14.73
2018-12-15T22:00:32.968Z,18.17
2018-12-15T22:03:04.515Z,17.47
2018-12-15T22:05:35.981Z,20.67
2018-12-15T22:08:07.572Z,16.97
2018-12-15T22:10:39.093Z,17.90
2018-12-15T22:13:10.688Z,18.87
2018-12-15T22:15:42.180Z,18.30
2018-12-15T22:18:13.733Z,20.67
2018-12-15T22:20:45.552Z,19.30
2018-12-15T22:23:17.058Z,18.30
2018-12-15T22:25:48.762Z,21.90
2018-12-15T22:28:20.261Z,18.77
2018-12-15T22:30:51.817Z,20.13
2018-12-15T22:33:23.263Z,15.50
2018-12-15T22:35:54.821Z,19.57
2018-12-15T22:38:26.283Z,20.80
2018-12-15T22:40:57.872Z,22.33
2018-12-15T22:43:29.385Z,20.23
2018-12-15T22:46:00.978Z,18.13
2018-12-15T22:48:32.494Z,20.90
2018-12-15T22:51:04.136Z,21.07
2018-12-15T22:53:35.682Z,21.30
2018-12-15T22:56:07.299Z,20.10
2018-12-15T22:58:38.802Z,21.77
2018-12-15T23:01:12.193Z,21.37
2018-12-15T23:03:43.631Z,22.83
2018-12-15T23:06:15.301Z,21.97
2018-12-15T23:08:46.922Z,21.87
2018-12-15T23:11:18.412Z,21.93
2018-12-15T23:13:49.969Z,21.13
2018-12-15T23:16:21.389Z,18.80
2018-12-15T23:18:52.962Z,17.80
2018-12-15T23:21:24.465Z,18.47
2018-12-15T23:23:56.073Z,23.87
2018-12-15T23:26:27.496Z,21.57
2018-12-15T23:28:59.674Z,21.73
2018-12-15T23:31:31.240Z,24.13
2018-12-15T23:34:02.877Z,21.03
2018-12-15T23:36:34.368Z,22.57
2018-12-15T23:39:08.214Z,19.17
2018-12-15T23:41:39.911Z,18.73
2018-12-15T23:44:11.375Z,20.37
2018-12-15T23:46:42.925Z,20.83
2018-12-15T23:49:14.351Z,22.70
2018-12-15T23:51:45.972Z,20.53
2018-12-15T23:54:17.520Z,21.23
2018-12-15T23:56:49.148Z,18.00
2018-12-15T23:59:20.761Z,22.43
